Time,TemperatureF,DewpointF,PressureIn,WindDirection,WindDirectionDegrees,WindSpeedMPH,WindSpeedGustMPH,Humidity,HourlyPrecipIn,Conditions,Clouds,dailyrainin,SoftwareType,DateUTC
2014-08-01 00:01:00,65.3,37.0,0.00,East,95,0.0,0.0,35,0.00,,---,0.00,VWS V15.00,2014-08-01 04:01:00,
2014-08-01 00:02:00,65.1,36.8,0.00,East,95,0.0,0.0,35,0.00,,---,0.00,VWS V15.00,2014-08-01 04:02:00,
2014-08-01 00:03:00,65.1,36.8,0.00,East,95,0.0,0.0,35,0.00,,---,0.00,VWS V15.00,2014-08-01 04:03:00,
2014-08-01 00:04:00,65.1,36.8,0.00,East,95,0.0,0.0,35,0.00,,---,0.00,VWS V15.00,2014-08-01 04:04:00,
2014-08-01 00:06:00,64.9,37.4,0.00,East,95,0.0,0.0,36,0.00,,---,0.00,VWS V15.00,2014-08-01 04:06:00,
2014-08-01 00:08:00,64.8,36.5,0.00,East,95,0.0,0.0,35,0.00,,---,0.00,VWS V15.00,2014-08-01 04:08:00,
2014-08-01 00:13:00,64.8,36.5,0.00,East,95,0.0,0.0,35,0.00,,---,0.00,VWS V15.00,2014-08-01 04:13:00,
2014-08-01 00:24:00,64.4,36.9,0.00,East,95,0.0,0.0,36,0.00,,---,0.00,VWS V15.00,2014-08-01 04:24:00,
2014-08-01 00:30:00,64.2,37.4,0.00,East,95,0.0,0.0,37,0.00,,---,0.00,VWS V15.00,2014-08-01 04:30:00,
2014-08-01 01:04:00,63.5,37.5,0.00,East,95,0.0,0.0,38,0.00,,---,0.00,VWS V15.00,2014-08-01 05:04:00,
2014-08-01 01:09:00,63.3,37.3,0.00,East,95,0.0,0.0,38,0.00,,---,0.00,VWS V15.00,2014-08-01 05:09:00,
2014-08-01 01:15:00,63.1,37.1,0.00,East,95,0.0,0.0,38,0.00,,---,0.00,VWS V15.00,2014-08-01 05:15:00,
2014-08-01 01:20:00,63.0,37.0,0.00,East,95,0.0,0.0,38,0.00,,---,0.00,VWS V15.00,2014-08-01 05:20:00,
2014-08-01 01:26:00,63.0,37.0,0.00,East,95,0.0,0.0,38,0.00,,---,0.00,VWS V15.00,2014-08-01 05:26:00,
2014-08-01 01:56:00,62.2,37.6,0.00,East,95,0.0,0.0,40,0.00,,---,0.00,VWS V15.00,2014-08-01 05:56:00,
2014-08-01 02:01:00,62.2,37.6,0.00,East,95,0.0,0.0,40,0.00,,---,0.00,VWS V15.00,2014-08-01 06:01:00,
2014-08-01 02:06:00,62.2,37.6,0.00,East,95,0.0,0.0,40,0.00,,---,0.00,VWS V15.00,2014-08-01 06:06:00,
2014-08-01 02:11:00,62.2,37.6,0.00,East,95,0.0,0.0,40,0.00,,---,0.00,VWS V15.00,2014-08-01 06:11:00,
2014-08-01 02:17:00,62.2,37.6,0.00,East,95,0.0,0.0,40,0.00,,---,0.00,VWS V15.00,2014-08-01 06:17:00,
2014-08-01 02:22:00,62.1,37.5,0.00,East,95,0.0,0.0,40,0.00,,---,0.00,VWS V15.00,2014-08-01 06:22:00,
2014-08-01 02:28:00,61.9,37.3,0.00,East,95,0.0,0.0,40,0.00,,---,0.00,VWS V15.00,2014-08-01 06:28:00,
2014-08-01 03:04:00,61.3,38.1,0.00,East,95,0.0,0.0,42,0.00,,---,0.00,VWS V15.00,2014-08-01 07:04:00,
2014-08-01 03:09:00,61.3,38.1,0.00,East,95,0.0,0.0,42,0.00,,---,0.00,VWS V15.00,2014-08-01 07:09:00,
2014-08-01 03:15:00,61.2,37.9,0.00,East,95,0.0,0.0,42,0.00,,---,0.00,VWS V15.00,2014-08-01 07:15:00,
2014-08-01 03:21:00,61.2,38.5,0.00,East,95,0.0,0.0,43,0.00,,---,0.00,VWS V15.00,2014-08-01 07:21:00,
2014-08-01 03:26:00,61.0,38.3,0.00,East,95,0.0,0.0,43,0.00,,---,0.00,VWS V15.00,2014-08-01 07:26:00,
2014-08-01 03:32:00,61.0,38.3,0.00,East,95,0.0,0.0,43,0.00,,---,0.00,VWS V15.00,2014-08-01 07:32:00,
2014-08-01 03:56:00,61.2,39.1,0.00,East,95,0.0,0.0,44,0.00,,---,0.00,VWS V15.00,2014-08-01 07:56:00,
2014-08-01 04:01:00,61.0,39.5,0.00,East,95,0.0,0.0,45,0.00,,---,0.00,VWS V15.00,2014-08-01 08:01:00,
2014-08-01 04:07:00,60.6,39.2,0.00,East,95,0.0,0.0,45,0.00,,---,0.00,VWS V15.00,2014-08-01 08:07:00,
2014-08-01 04:13:00,60.6,39.2,0.00,East,95,0.0,0.0,45,0.00,,---,0.00,VWS V15.00,2014-08-01 08:13:00,
2014-08-01 04:18:00,60.6,39.2,0.00,East,95,0.0,0.0,45,0.00,,---,0.00,VWS V15.00,2014-08-01 08:18:00,
2014-08-01 04:24:00,60.6,39.2,0.00,East,95,0.0,0.0,45,0.00,,---,0.00,VWS V15.00,2014-08-01 08:24:00,
2014-08-01 04:29:00,60.6,39.2,0.00,East,95,0.0,0.0,45,0.00,,---,0.00,VWS V15.00,2014-08-01 08:29:00,
2014-08-01 05:04:00,60.4,39.0,0.00,East,95,0.0,0.0,45,0.00,,---,0.00,VWS V15.00,2014-08-01 09:04:00,
2014-08-01 05:09:00,60.6,39.2,0.00,East,95,0.0,0.0,45,0.00,,---,0.00,VWS V15.00,2014-08-01 09:09:00,
2014-08-01 05:15:00,60.4,39.0,0.00,East,95,0.0,0.0,45,0.00,,---,0.00,VWS V15.00,2014-08-01 09:15:00,
2014-08-01 05:21:00,60.3,38.8,0.00,East,95,0.0,0.0,45,0.00,,---,0.00,VWS V15.00,2014-08-01 09:21:00,
2014-08-01 05:27:00,60.4,39.0,0.00,East,95,0.0,0.0,45,0.00,,---,0.00,VWS V15.00,2014-08-01 09:27:00,
2014-08-01 05:32:00,60.4,39.0,0.00,East,95,0.0,0.0,45,0.00,,---,0.00,VWS V15.00,2014-08-01 09:32:00,
2014-08-01 05:55:00,60.6,39.8,0.00,East,95,0.0,0.0,46,0.00,,---,0.00,VWS V15.00,2014-08-01 09:55:00,
2014-08-01 06:01:00,60.6,39.8,0.00,East,95,0.0,0.0,46,0.00,,---,0.00,VWS V15.00,2014-08-01 10:01:00,
2014-08-01 06:06:00,60.6,39.8,0.00,East,95,0.0,0.0,46,0.00,,---,0.00,VWS V15.00,2014-08-01 10:06:00,
2014-08-01 06:12:00,60.6,39.8,0.00,East,95,0.0,0.0,46,0.00,,---,0.00,VWS V15.00,2014-08-01 10:12:00,
2014-08-01 06:17:00,60.6,39.2,0.00,East,95,0.0,0.0,45,0.00,,---,0.00,VWS V15.00,2014-08-01 10:17:00,
2014-08-01 06:23:00,60.6,39.8,0.00,East,95,0.0,0.0,46,0.00,,---,0.00,VWS V15.00,2014-08-01 10:23:00,
2014-08-01 06:29:00,60.6,39.8,0.00,East,95,0.0,0.0,46,0.00,,---,0.00,VWS V15.00,2014-08-01 10:29:00,
2014-08-01 07:04:00,61.7,40.7,0.00,East,96,0.0,0.0,46,0.00,,---,0.00,VWS V15.00,2014-08-01 11:04:00,
2014-08-01 07:09:00,61.9,40.9,0.00,East,96,0.0,0.0,46,0.00,,---,0.00,VWS V15.00,2014-08-01 11:09:00,
2014-08-01 07:15:00,62.2,41.8,0.00,East,96,0.0,0.0,47,0.00,,---,0.00,VWS V15.00,2014-08-01 11:15:00,
2014-08-01 07:20:00,62.6,41.5,0.00,East,96,0.0,0.0,46,0.00,,---,0.00,VWS V15.00,2014-08-01 11:20:00,
2014-08-01 07:26:00,62.8,41.7,0.00,East,96,0.0,0.0,46,0.00,,---,0.00,VWS V15.00,2014-08-01 11:26:00,
2014-08-01 07:31:00,63.1,42.6,0.00,East,96,0.0,0.0,47,0.00,,---,0.00,VWS V15.00,2014-08-01 11:31:00,
2014-08-01 07:55:00,64.8,44.1,0.00,East,96,0.0,0.0,47,0.00,,---,0.00,VWS V15.00,2014-08-01 11:55:00,
2014-08-01 08:01:00,65.1,44.4,0.00,East,96,0.0,0.0,47,0.00,,---,0.00,VWS V15.00,2014-08-01 12:01:00,
2014-08-01 08:07:00,65.7,44.9,0.00,East,96,0.0,0.0,47,0.00,,---,0.00,VWS V15.00,2014-08-01 12:07:00,
2014-08-01 08:13:00,66.0,44.7,0.00,East,96,0.0,0.0,46,0.00,,---,0.00,VWS V15.00,2014-08-01 12:13:00,
2014-08-01 08:19:00,66.2,42.5,0.00,East,96,0.0,0.0,42,0.00,,---,0.00,VWS V15.00,2014-08-01 12:19:00,
2014-08-01 08:25:00,66.6,41.5,0.00,East,96,0.0,0.0,40,0.00,,---,0.00,VWS V15.00,2014-08-01 12:25:00,
2014-08-01 08:30:00,66.9,41.2,0.00,East,96,0.0,0.0,39,0.00,,---,0.00,VWS V15.00,2014-08-01 12:30:00,
2014-08-01 09:04:00,69.3,41.2,0.00,East,96,0.0,0.0,36,0.00,,---,0.00,VWS V15.00,2014-08-01 13:04:00,
2014-08-01 09:09:00,69.6,41.5,0.00,East,96,0.0,0.0,36,0.00,,---,0.00,VWS V15.00,2014-08-01 13:09:00,
2014-08-01 09:14:00,69.8,40.2,0.00,East,96,0.0,0.0,34,0.00,,---,0.00,VWS V15.00,2014-08-01 13:14:00,
2014-08-01 09:20:00,70.2,39.7,0.00,East,96,0.0,0.0,33,0.00,,---,0.00,VWS V15.00,2014-08-01 13:20:00,
2014-08-01 09:25:00,70.9,40.4,0.00,East,96,0.0,0.0,33,0.00,,---,0.00,VWS V15.00,2014-08-01 13:25:00,
2014-08-01 09:31:00,71.6,40.2,0.00,East,96,0.0,0.0,32,0.00,,---,0.00,VWS V15.00,2014-08-01 13:31:00,
2014-08-01 09:55:00,73.8,42.1,0.00,ESE,103,0.0,3.6,32,0.00,,---,0.00,VWS V15.00,2014-08-01 13:55:00,
2014-08-01 10:01:00,74.3,41.7,0.00,ESE,103,0.0,0.0,31,0.00,,---,0.00,VWS V15.00,2014-08-01 14:01:00,
2014-08-01 10:07:00,74.7,42.0,0.00,ESE,103,0.0,0.0,31,0.00,,---,0.00,VWS V15.00,2014-08-01 14:07:00,
2014-08-01 10:13:00,75.0,42.4,0.00,ESE,103,0.0,0.0,31,0.00,,---,0.00,VWS V15.00,2014-08-01 14:13:00,
2014-08-01 10:18:00,75.0,42.4,0.00,ESE,102,2.2,2.2,31,0.00,,---,0.00,VWS V15.00,2014-08-01 14:18:00,
2014-08-01 10:24:00,75.4,42.7,0.00,ESE,102,0.0,0.0,31,0.00,,---,0.00,VWS V15.00,2014-08-01 14:24:00,
2014-08-01 10:29:00,75.7,43.0,0.00,East,96,0.0,2.2,31,0.00,,---,0.00,VWS V15.00,2014-08-01 14:29:00,
2014-08-01 11:04:00,77.4,44.4,0.00,ESE,103,0.0,4.9,31,0.00,,---,0.00,VWS V15.00,2014-08-01 15:04:00,
2014-08-01 11:09:00,77.7,44.7,0.00,ESE,109,0.0,2.2,31,0.00,,---,0.00,VWS V15.00,2014-08-01 15:09:00,
2014-08-01 11:14:00,78.1,45.0,0.00,ESE,109,0.0,0.0,31,0.00,,---,0.00,VWS V15.00,2014-08-01 15:14:00,
2014-08-01 11:19:00,77.9,44.9,0.00,East,98,2.2,2.7,31,0.00,,---,0.00,VWS V15.00,2014-08-01 15:19:00,
2014-08-01 11:25:00,78.1,45.0,0.00,ESE,109,0.0,0.0,31,0.00,,---,0.00,VWS V15.00,2014-08-01 15:25:00,
2014-08-01 11:30:00,78.1,45.0,0.00,East,101,0.0,2.2,31,0.00,,---,0.00,VWS V15.00,2014-08-01 15:30:00,
2014-08-01 11:55:00,77.2,44.2,0.00,East,97,0.0,6.3,31,0.00,,---,0.00,VWS V15.00,2014-08-01 15:55:00,
2014-08-01 12:01:00,77.0,44.1,0.00,East,94,0.0,2.7,31,0.00,,---,0.00,VWS V15.00,2014-08-01 16:01:00,
2014-08-01 12:06:00,76.5,43.6,0.00,ESE,120,2.7,5.8,31,0.00,,---,0.00,VWS V15.00,2014-08-01 16:06:00,
2014-08-01 12:12:00,76.3,43.5,0.00,East,100,0.0,4.9,31,0.00,,---,0.00,VWS V15.00,2014-08-01 16:12:00,
2014-08-01 12:17:00,76.3,43.5,0.00,East,93,0.0,3.1,31,0.00,,---,0.00,VWS V15.00,2014-08-01 16:17:00,
2014-08-01 12:23:00,76.5,43.6,0.00,ESE,109,4.9,4.9,31,0.00,,---,0.00,VWS V15.00,2014-08-01 16:23:00,
2014-08-01 12:28:00,76.1,43.3,0.00,ESE,112,3.6,3.6,31,0.00,,---,0.00,VWS V15.00,2014-08-01 16:28:00,
2014-08-01 13:03:00,77.7,44.7,0.00,East,96,0.0,5.4,31,0.00,,---,0.00,VWS V15.00,2014-08-01 17:03:00,
2014-08-01 13:09:00,76.1,43.3,0.00,East,90,2.7,5.4,31,0.00,,---,0.00,VWS V15.00,2014-08-01 17:09:00,
2014-08-01 13:15:00,76.3,43.5,0.00,East,99,0.0,0.0,31,0.00,,---,0.00,VWS V15.00,2014-08-01 17:15:00,
2014-08-01 13:20:00,76.3,43.5,0.00,East,101,0.0,3.1,31,0.00,,---,0.00,VWS V15.00,2014-08-01 17:20:00,
2014-08-01 13:26:00,76.3,43.5,0.00,East,98,2.7,3.6,31,0.00,,---,0.00,VWS V15.00,2014-08-01 17:26:00,
2014-08-01 13:31:00,76.5,43.6,0.00,East,99,0.0,0.0,31,0.00,,---,0.00,VWS V15.00,2014-08-01 17:31:00,
2014-08-01 13:55:00,76.5,43.6,0.00,East,101,3.6,6.3,31,0.00,,---,0.00,VWS V15.00,2014-08-01 17:55:00,
2014-08-01 14:01:00,76.5,43.6,0.00,ESE,112,2.2,3.6,31,0.00,,---,0.00,VWS V15.00,2014-08-01 18:01:00,
2014-08-01 14:06:00,76.8,43.9,0.00,ESE,108,0.0,0.0,31,0.00,,---,0.00,VWS V15.00,2014-08-01 18:06:00,
2014-08-01 14:12:00,77.5,44.5,0.00,East,100,3.6,3.6,31,0.00,,---,0.00,VWS V15.00,2014-08-01 18:12:00,
2014-08-01 14:18:00,77.5,44.5,0.00,ESE,102,0.0,3.6,31,0.00,,---,0.00,VWS V15.00,2014-08-01 18:18:00,
2014-08-01 14:23:00,77.0,44.1,0.00,ESE,102,2.2,5.4,31,0.00,,---,0.00,VWS V15.00,2014-08-01 18:23:00,
2014-08-01 14:29:00,76.8,43.9,0.00,East,101,2.7,5.4,31,0.00,,---,0.00,VWS V15.00,2014-08-01 18:29:00,
2014-08-01 15:03:00,77.0,44.1,0.00,East,101,3.1,6.3,31,0.00,,---,0.00,VWS V15.00,2014-08-01 19:03:00,
2014-08-01 15:09:00,76.5,43.6,0.00,East,98,0.0,2.7,31,0.00,,---,0.00,VWS V15.00,2014-08-01 19:09:00,
2014-08-01 15:14:00,76.1,43.3,0.00,East,100,4.0,4.0,31,0.00,,---,0.00,VWS V15.00,2014-08-01 19:14:00,
2014-08-01 15:19:00,75.9,43.1,0.00,East,96,3.6,4.9,31,0.00,,---,0.00,VWS V15.00,2014-08-01 19:19:00,
2014-08-01 15:25:00,75.7,43.0,0.00,East,92,2.2,3.1,31,0.00,,---,0.00,VWS V15.00,2014-08-01 19:25:00,
2014-08-01 15:30:00,75.2,42.5,0.00,East,87,3.6,4.0,31,0.00,,---,0.00,VWS V15.00,2014-08-01 19:30:00,
2014-08-01 15:55:00,75.6,42.8,0.00,ESE,102,4.9,5.8,31,0.00,,---,0.00,VWS V15.00,2014-08-01 19:55:00,
2014-08-01 16:01:00,75.7,43.0,0.00,ESE,105,0.0,2.2,31,0.00,,---,0.00,VWS V15.00,2014-08-01 20:01:00,
2014-08-01 16:07:00,75.7,43.0,0.00,ESE,108,3.1,3.1,31,0.00,,---,0.00,VWS V15.00,2014-08-01 20:07:00,
2014-08-01 16:12:00,75.7,43.0,0.00,East,94,4.0,4.0,31,0.00,,---,0.00,VWS V15.00,2014-08-01 20:12:00,
2014-08-01 16:18:00,75.7,43.0,0.00,East,94,0.0,0.0,31,0.00,,---,0.00,VWS V15.00,2014-08-01 20:18:00,
2014-08-01 16:24:00,75.6,42.8,0.00,East,100,2.2,2.7,31,0.00,,---,0.00,VWS V15.00,2014-08-01 20:24:00,
2014-08-01 16:29:00,75.6,42.8,0.00,East,100,0.0,2.2,31,0.00,,---,0.00,VWS V15.00,2014-08-01 20:29:00,
2014-08-01 17:03:00,75.2,42.5,0.00,East,95,0.0,4.9,31,0.00,,---,0.00,VWS V15.00,2014-08-01 21:03:00,
2014-08-01 17:09:00,75.4,42.7,0.00,East,95,2.7,2.7,31,0.00,,---,0.00,VWS V15.00,2014-08-01 21:09:00,
2014-08-01 17:14:00,75.6,42.8,0.00,ESE,116,2.7,2.7,31,0.00,,---,0.00,VWS V15.00,2014-08-01 21:14:00,
2014-08-01 17:19:00,75.7,43.0,0.00,ESE,114,3.1,3.1,31,0.00,,---,0.00,VWS V15.00,2014-08-01 21:19:00,
2014-08-01 17:24:00,75.9,43.1,0.00,ESE,103,0.0,0.0,31,0.00,,---,0.00,VWS V15.00,2014-08-01 21:24:00,
2014-08-01 17:30:00,75.9,43.1,0.00,ESE,123,2.2,2.7,31,0.00,,---,0.00,VWS V15.00,2014-08-01 21:30:00,
2014-08-01 17:55:00,75.9,43.1,0.00,East,99,0.0,3.1,31,0.00,,---,0.00,VWS V15.00,2014-08-01 21:55:00,
2014-08-01 18:00:00,75.7,43.0,0.00,East,99,0.0,0.0,31,0.00,,---,0.00,VWS V15.00,2014-08-01 22:00:00,
2014-08-01 18:06:00,75.7,43.0,0.00,East,99,0.0,0.0,31,0.00,,---,0.00,VWS V15.00,2014-08-01 22:06:00,
2014-08-01 18:11:00,75.7,43.0,0.00,East,99,0.0,0.0,31,0.00,,---,0.00,VWS V15.00,2014-08-01 22:11:00,
2014-08-01 18:17:00,75.6,42.8,0.00,East,99,0.0,0.0,31,0.00,,---,0.00,VWS V15.00,2014-08-01 22:17:00,
2014-08-01 18:22:00,75.6,42.8,0.00,East,99,0.0,0.0,31,0.00,,---,0.00,VWS V15.00,2014-08-01 22:22:00,
2014-08-01 18:28:00,75.9,43.1,0.00,East,99,0.0,0.0,31,0.00,,---,0.00,VWS V15.00,2014-08-01 22:28:00,